Terminal Aerodrome Forecast
Issued by NWS Melbourne, FL

Home | Current Version | Previous Version | Text Only | Print | Product List | Glossary On
Versions: 1 2 3 4 5 6 7 8 9 10 11 12 13 14 15 16 17 18 19 20
000
FTUS42 KMLB 162300
TAFMLB
TAF
KMLB 162333Z 1700/1724 25004KT P6SM SCT070 OVC150
     FM171400 27008KT P6SM VCSH FEW020 SCT120 BKN250
     FM171900 29007KT P6SM VCTS SCT040CB BKN100=

USA.gov is the U.S. government's official web portal to all federal, state and local government web resources and services.